createdAt,value
2023-03-02T00:00:03.043Z,6.17
2023-03-02T00:02:29.960Z,6.30
2023-03-02T00:04:58.811Z,6.57
2023-03-02T00:07:32.358Z,8.10
2023-03-02T00:09:59.425Z,7.90
2023-03-02T00:12:32.154Z,8.67
2023-03-02T00:15:00.044Z,6.40
2023-03-02T00:17:29.504Z,7.67
2023-03-02T00:20:11.531Z,6.73
2023-03-02T00:22:39.367Z,6.87
2023-03-02T00:25:06.703Z,5.17
2023-03-02T00:27:33.441Z,6.80
2023-03-02T00:30:00.177Z,8.73
2023-03-02T00:32:27.094Z,6.37
2023-03-02T00:34:53.789Z,7.77
2023-03-02T00:37:20.974Z,6.73
2023-03-02T00:39:47.658Z,7.63
2023-03-02T00:42:14.354Z,6.93
2023-03-02T00:44:41.123Z,6.57
2023-03-02T00:47:07.813Z,6.13
2023-03-02T00:49:34.918Z,6.63
2023-03-02T00:52:01.628Z,8.07
2023-03-02T00:54:28.401Z,6.30
2023-03-02T00:56:55.064Z,9.43
2023-03-02T00:59:27.668Z,6.83
2023-03-02T01:01:59.610Z,7.00
2023-03-02T01:04:36.070Z,7.27
2023-03-02T01:07:07.132Z,9.73
2023-03-02T01:09:34.254Z,6.10
2023-03-02T01:12:01.011Z,8.77
2023-03-02T01:14:28.041Z,8.53
2023-03-02T01:16:54.886Z,7.53
2023-03-02T01:19:21.564Z,7.50
2023-03-02T01:21:50.494Z,10.93
2023-03-02T01:24:17.138Z,8.27
2023-03-02T01:26:43.790Z,7.20
2023-03-02T01:29:11.577Z,7.60
2023-03-02T01:31:39.352Z,7.30
2023-03-02T01:34:06.931Z,9.10
2023-03-02T01:36:34.829Z,6.57
2023-03-02T01:39:01.875Z,8.77
2023-03-02T01:41:28.712Z,7.97
2023-03-02T01:43:55.444Z,7.50
2023-03-02T01:46:27.143Z,7.40
2023-03-02T01:49:06.943Z,8.57
2023-03-02T01:51:39.436Z,8.47
2023-03-02T01:54:09.809Z,6.83
2023-03-02T01:56:40.827Z,11.43
2023-03-02T01:59:12.031Z,9.03
2023-03-02T02:01:44.547Z,6.43
2023-03-02T02:04:12.099Z,8.53
2023-03-02T02:07:04.384Z,9.67
2023-03-02T02:09:37.035Z,6.47
2023-03-02T02:12:05.785Z,10.27
2023-03-02T02:14:32.912Z,12.43
2023-03-02T02:16:59.752Z,10.57
2023-03-02T02:19:43.627Z,6.23
2023-03-02T02:22:11.451Z,9.30
2023-03-02T02:24:55.365Z,9.67
2023-03-02T02:27:22.582Z,8.57
2023-03-02T02:29:51.887Z,8.70
2023-03-02T02:32:26.434Z,10.10
2023-03-02T02:35:13.136Z,11.20
2023-03-02T02:37:46.351Z,8.57
2023-03-02T02:40:18.065Z,6.60
2023-03-02T02:42:48.228Z,7.67
2023-03-02T02:45:33.410Z,12.73
2023-03-02T02:48:00.171Z,8.67
2023-03-02T02:50:33.462Z,11.47
2023-03-02T02:53:05.389Z,9.50
2023-03-02T02:55:33.340Z,7.87
2023-03-02T02:58:02.991Z,7.80
2023-03-02T03:00:29.677Z,9.63
2023-03-02T03:03:06.524Z,10.03
2023-03-02T03:05:33.548Z,10.50
2023-03-02T03:08:08.752Z,10.47
2023-03-02T03:10:40.146Z,9.97
2023-03-02T03:13:11.288Z,10.73
2023-03-02T03:15:38.218Z,11.70
2023-03-02T03:18:04.930Z,11.37
2023-03-02T03:20:31.670Z,11.33
2023-03-02T03:23:00.475Z,12.47
2023-03-02T03:25:27.987Z,14.93
2023-03-02T03:27:54.646Z,12.27
2023-03-02T03:30:22.634Z,10.50
2023-03-02T03:32:49.326Z,14.67
2023-03-02T03:35:16.083Z,15.50
2023-03-02T03:37:43.441Z,15.83
2023-03-02T03:40:10.876Z,13.47
2023-03-02T03:42:38.449Z,13.23
2023-03-02T03:45:06.299Z,14.67
2023-03-02T03:47:32.996Z,19.53
2023-03-02T03:49:59.715Z,15.40
2023-03-02T03:52:35.361Z,15.83
2023-03-02T03:55:03.087Z,15.40
2023-03-02T03:57:29.990Z,18.40
2023-03-02T03:59:56.738Z,17.37
2023-03-02T04:02:23.481Z,18.37
2023-03-02T04:04:50.219Z,19.23
2023-03-02T04:07:16.968Z,19.67
2023-03-02T04:09:44.362Z,19.07
2023-03-02T04:12:11.222Z,20.40
2023-03-02T04:14:38.249Z,22.53
2023-03-02T04:17:05.485Z,20.60
2023-03-02T04:19:32.783Z,22.43
2023-03-02T04:22:01.750Z,22.23
2023-03-02T04:24:28.534Z,21.47
2023-03-02T04:26:55.258Z,22.20
2023-03-02T04:29:23.266Z,25.67
2023-03-02T04:31:50.048Z,23.30
2023-03-02T04:34:16.835Z,25.20
2023-03-02T04:36:43.967Z,29.50
2023-03-02T04:39:12.659Z,25.10
2023-03-02T04:41:39.331Z,26.57
2023-03-02T04:44:05.987Z,29.57
2023-03-02T04:46:34.589Z,27.53
2023-03-02T04:49:01.867Z,27.00
2023-03-02T04:51:34.527Z,27.23
2023-03-02T04:54:04.456Z,31.93
2023-03-02T04:56:31.850Z,26.17
2023-03-02T04:58:59.309Z,31.27
2023-03-02T05:01:26.463Z,32.57
2023-03-02T05:03:53.640Z,32.23
2023-03-02T05:06:21.907Z,29.27
2023-03-02T05:08:48.750Z,28.80
2023-03-02T05:11:21.973Z,34.03
2023-03-02T05:13:50.743Z,30.77
2023-03-02T05:16:17.955Z,31.70
2023-03-02T05:18:44.989Z,32.83
2023-03-02T05:21:12.483Z,33.27
2023-03-02T05:23:39.141Z,31.33
2023-03-02T05:26:05.819Z,29.97
2023-03-02T05:28:33.391Z,33.40
2023-03-02T05:31:00.857Z,31.20
2023-03-02T05:33:28.490Z,30.33
2023-03-02T05:35:55.908Z,29.23
2023-03-02T05:38:22.675Z,33.50
2023-03-02T05:40:50.939Z,29.70
2023-03-02T05:43:20.003Z,33.87
2023-03-02T05:45:46.763Z,30.67
2023-03-02T05:48:14.242Z,30.10
2023-03-02T05:50:41.426Z,28.77
2023-03-02T05:53:08.751Z,33.13
2023-03-02T05:55:38.380Z,33.17
2023-03-02T05:58:12.729Z,28.40
2023-03-02T06:00:39.421Z,32.07
2023-03-02T06:03:06.380Z,24.27
2023-03-02T06:05:33.737Z,25.13
2023-03-02T06:08:00.955Z,30.43
2023-03-02T06:10:27.780Z,28.93
2023-03-02T06:12:54.764Z,28.17
2023-03-02T06:15:21.596Z,29.03
2023-03-02T06:17:51.252Z,29.37
2023-03-02T06:20:18.223Z,29.93
2023-03-02T06:22:46.663Z,30.47
2023-03-02T06:25:17.518Z,28.70
2023-03-02T06:27:45.017Z,28.07
2023-03-02T06:30:15.367Z,31.33
2023-03-02T06:32:42.625Z,31.83
2023-03-02T06:35:10.857Z,28.60
2023-03-02T06:37:37.808Z,29.70
2023-03-02T06:40:08.664Z,28.40
2023-03-02T06:42:35.388Z,29.63
2023-03-02T06:45:02.260Z,30.17
2023-03-02T06:47:29.058Z,29.63
2023-03-02T06:49:56.546Z,31.47
2023-03-02T06:52:23.297Z,30.83
2023-03-02T06:54:50.050Z,33.17
2023-03-02T06:57:16.774Z,29.17
2023-03-02T06:59:43.616Z,32.60
2023-03-02T07:02:11.398Z,27.33
2023-03-02T07:04:38.277Z,29.50
2023-03-02T07:07:05.827Z,31.07
2023-03-02T07:09:34.082Z,31.57
2023-03-02T07:12:00.965Z,28.47
2023-03-02T07:14:27.607Z,28.23
2023-03-02T07:16:57.334Z,30.17
2023-03-02T07:19:24.274Z,31.00
2023-03-02T07:21:50.965Z,28.33
2023-03-02T07:24:17.663Z,29.17
2023-03-02T07:26:44.359Z,29.57
2023-03-02T07:29:11.040Z,29.87
2023-03-02T07:31:37.726Z,28.33
2023-03-02T07:34:04.646Z,33.63
2023-03-02T07:36:31.323Z,30.40
2023-03-02T07:38:59.108Z,29.00
2023-03-02T07:41:25.796Z,30.40
2023-03-02T07:43:52.505Z,29.83
2023-03-02T07:46:19.199Z,30.10
2023-03-02T07:48:46.188Z,25.93
2023-03-02T07:51:12.881Z,29.43
2023-03-02T07:53:39.630Z,29.70
2023-03-02T07:56:09.281Z,27.00
2023-03-02T07:58:36.086Z,28.83
2023-03-02T08:01:04.434Z,27.43
2023-03-02T08:03:31.285Z,25.97
2023-03-02T08:05:57.978Z,27.23
2023-03-02T08:08:24.740Z,32.87
2023-03-02T08:10:51.506Z,26.33
2023-03-02T08:13:18.194Z,28.13
2023-03-02T08:15:44.935Z,25.40
2023-03-02T08:18:11.646Z,27.77
2023-03-02T08:20:38.645Z,26.17
2023-03-02T08:23:05.374Z,26.03
2023-03-02T08:25:32.036Z,29.77
2023-03-02T08:27:58.728Z,24.67
2023-03-02T08:30:25.536Z,24.23
2023-03-02T08:32:52.211Z,27.03
2023-03-02T08:35:19.089Z,26.80
2023-03-02T08:37:45.788Z,24.87
2023-03-02T08:40:12.832Z,25.17
2023-03-02T08:42:39.540Z,27.13
2023-03-02T08:45:06.792Z,25.27
2023-03-02T08:47:33.510Z,24.43
2023-03-02T08:50:00.212Z,20.40
2023-03-02T08:52:26.896Z,22.20
2023-03-02T08:54:53.592Z,27.67
2023-03-02T08:57:21.367Z,21.90
2023-03-02T08:59:48.165Z,22.40
2023-03-02T09:02:14.925Z,22.67
2023-03-02T09:04:41.948Z,19.30
2023-03-02T09:07:09.431Z,20.57
2023-03-02T09:09:36.542Z,22.30
2023-03-02T09:12:03.292Z,24.73
2023-03-02T09:14:30.000Z,25.83
2023-03-02T09:16:56.826Z,22.77
2023-03-02T09:19:23.595Z,18.13
2023-03-02T09:21:50.305Z,23.40
2023-03-02T09:24:17.161Z,19.00
2023-03-02T09:26:43.903Z,20.43
2023-03-02T09:29:10.705Z,22.20
2023-03-02T09:31:38.260Z,20.57
2023-03-02T09:34:05.469Z,19.60
2023-03-02T09:36:32.744Z,18.20
2023-03-02T09:38:59.896Z,21.63
2023-03-02T09:41:58.470Z,17.77
2023-03-02T09:44:56.154Z,19.67
2023-03-02T09:47:37.684Z,14.23
2023-03-02T09:50:04.614Z,14.07
2023-03-02T09:52:40.490Z,14.77
2023-03-02T09:55:18.460Z,14.37
2023-03-02T09:57:47.029Z,15.50
2023-03-02T10:00:26.838Z,17.50
2023-03-02T10:03:17.039Z,14.43
2023-03-02T10:05:47.698Z,15.73
2023-03-02T10:08:18.243Z,15.03
2023-03-02T10:10:49.780Z,12.60
2023-03-02T10:13:22.642Z,12.33
2023-03-02T10:16:02.549Z,12.03
2023-03-02T10:18:56.025Z,14.50
2023-03-02T10:21:28.161Z,12.60
2023-03-02T10:23:57.830Z,10.67
2023-03-02T10:26:35.765Z,12.17
2023-03-02T10:29:45.605Z,10.00
2023-03-02T10:32:24.097Z,11.20
2023-03-02T10:34:52.769Z,11.00
2023-03-02T10:37:25.504Z,10.77
2023-03-02T10:39:52.906Z,13.33
2023-03-02T10:42:26.228Z,10.63
2023-03-02T10:44:56.630Z,10.27
2023-03-02T10:47:28.475Z,9.83
2023-03-02T10:49:56.938Z,11.23
2023-03-02T10:52:28.626Z,10.30
2023-03-02T10:55:15.566Z,10.90
2023-03-02T10:57:44.248Z,13.57
2023-03-02T11:00:23.109Z,9.43
2023-03-02T11:02:49.804Z,11.73
2023-03-02T11:05:33.247Z,14.60
2023-03-02T11:08:04.725Z,12.33
2023-03-02T11:10:36.653Z,10.37
2023-03-02T11:13:20.532Z,12.27
2023-03-02T11:15:49.294Z,15.77
2023-03-02T11:18:36.805Z,11.93
2023-03-02T11:21:15.007Z,10.53
2023-03-02T11:24:18.404Z,11.63
2023-03-02T11:26:54.810Z,12.60
2023-03-02T11:29:57.401Z,13.73
2023-03-02T11:32:48.850Z,11.83
2023-03-02T11:35:37.076Z,12.30
2023-03-02T11:38:27.023Z,11.93
2023-03-02T11:41:03.087Z,11.43
2023-03-02T11:43:29.920Z,9.50
2023-03-02T11:46:01.692Z,11.97
2023-03-02T11:48:41.726Z,10.37
2023-03-02T11:51:21.974Z,12.83
2023-03-02T11:54:06.685Z,13.37
2023-03-02T11:56:38.452Z,15.30
2023-03-02T11:59:13.249Z,17.57
2023-03-02T12:01:40.597Z,14.30
2023-03-02T12:04:26.333Z,14.57
2023-03-02T12:06:54.856Z,10.73
2023-03-02T12:09:24.616Z,11.67
2023-03-02T12:12:14.605Z,14.97
2023-03-02T12:14:43.235Z,14.67
2023-03-02T12:17:22.263Z,12.77
2023-03-02T12:19:50.773Z,13.57
2023-03-02T12:22:30.905Z,12.03
2023-03-02T12:25:19.540Z,11.37
2023-03-02T12:27:48.611Z,9.83
2023-03-02T12:30:15.577Z,10.73
2023-03-02T12:32:45.719Z,14.03
2023-03-02T12:35:14.616Z,12.87
2023-03-02T12:38:06.679Z,13.17
2023-03-02T12:40:40.749Z,12.73
2023-03-02T12:43:38.521Z,13.43
2023-03-02T12:46:30.419Z,13.43
2023-03-02T12:49:15.314Z,12.93
2023-03-02T12:51:54.887Z,12.30
2023-03-02T12:54:25.312Z,11.00
2023-03-02T12:57:22.616Z,12.57
2023-03-02T12:59:55.419Z,13.93
2023-03-02T13:02:34.226Z,11.73
2023-03-02T13:05:04.287Z,13.57
2023-03-02T13:07:42.032Z,12.23
2023-03-02T13:10:52.271Z,13.47
2023-03-02T13:13:24.868Z,13.40
2023-03-02T13:15:54.102Z,11.63
2023-03-02T13:18:28.157Z,14.37
2023-03-02T13:20:55.736Z,14.97
2023-03-02T13:23:22.419Z,13.20
2023-03-02T13:25:54.990Z,13.50
2023-03-02T13:28:31.882Z,11.83
2023-03-02T13:31:20.067Z,13.57
2023-03-02T13:33:50.242Z,13.60
2023-03-02T13:36:23.473Z,13.53
2023-03-02T13:38:53.407Z,12.60
2023-03-02T13:41:28.843Z,14.07
2023-03-02T13:43:56.384Z,12.57
2023-03-02T13:46:33.178Z,15.80
2023-03-02T13:49:11.217Z,14.90
2023-03-02T13:51:42.007Z,14.43
2023-03-02T13:54:25.392Z,13.83
2023-03-02T13:56:53.824Z,12.00
2023-03-02T13:59:21.985Z,14.63
2023-03-02T14:01:49.400Z,16.87
2023-03-02T14:04:21.479Z,18.93
2023-03-02T14:06:48.657Z,14.23
2023-03-02T14:09:15.412Z,15.47
2023-03-02T14:11:44.860Z,18.97
2023-03-02T14:14:16.866Z,16.00
2023-03-02T14:16:43.596Z,18.37
2023-03-02T14:19:13.717Z,11.93
2023-03-02T14:21:42.021Z,16.97
2023-03-02T14:24:09.220Z,13.00
2023-03-02T14:26:44.283Z,15.77
2023-03-02T14:29:18.792Z,16.83
2023-03-02T14:31:45.517Z,13.80
2023-03-02T14:34:16.598Z,12.93
2023-03-02T14:36:46.112Z,14.13
2023-03-02T14:39:34.128Z,19.90
2023-03-02T14:42:00.978Z,22.33
2023-03-02T14:44:27.713Z,17.10
2023-03-02T14:46:54.565Z,17.77
2023-03-02T14:49:21.857Z,17.97
2023-03-02T14:52:00.922Z,19.90
2023-03-02T14:54:34.511Z,24.33
2023-03-02T14:57:01.641Z,17.80
2023-03-02T14:59:28.305Z,15.37
2023-03-02T15:01:57.732Z,18.83
2023-03-02T15:04:25.160Z,19.13
2023-03-02T15:06:51.842Z,16.47
2023-03-02T15:09:18.589Z,18.30
2023-03-02T15:11:45.379Z,17.17
2023-03-02T15:14:12.036Z,15.23
2023-03-02T15:16:38.751Z,15.83
2023-03-02T15:19:05.418Z,16.07
2023-03-02T15:21:32.435Z,16.50
2023-03-02T15:23:59.492Z,15.50
2023-03-02T15:26:26.216Z,14.40
2023-03-02T15:28:52.948Z,16.80
2023-03-02T15:31:20.586Z,14.70
2023-03-02T15:33:47.390Z,16.63
2023-03-02T15:36:14.548Z,13.83
2023-03-02T15:38:41.563Z,16.70
2023-03-02T15:41:12.175Z,15.10
2023-03-02T15:43:39.602Z,14.20
2023-03-02T15:46:06.977Z,14.60
2023-03-02T15:48:33.662Z,11.57
2023-03-02T15:51:02.541Z,14.73
2023-03-02T15:53:30.891Z,16.40
2023-03-02T15:55:57.589Z,16.63
2023-03-02T15:58:24.424Z,21.30
2023-03-02T16:00:53.496Z,17.20
2023-03-02T16:03:22.531Z,15.57
2023-03-02T16:05:49.680Z,16.67
2023-03-02T16:08:16.566Z,19.37
2023-03-02T16:10:43.445Z,19.37
2023-03-02T16:13:13.262Z,20.00
2023-03-02T16:15:41.145Z,19.37
2023-03-02T16:18:11.408Z,18.57
2023-03-02T16:20:39.101Z,19.87
2023-03-02T16:23:07.620Z,18.70
2023-03-02T16:25:43.440Z,18.17
2023-03-02T16:28:11.664Z,16.47
2023-03-02T16:30:39.411Z,19.33
2023-03-02T16:33:09.790Z,16.30
2023-03-02T16:35:38.443Z,21.37
2023-03-02T16:38:06.227Z,17.63
2023-03-02T16:40:33.603Z,19.40
2023-03-02T16:43:00.266Z,19.63
2023-03-02T16:45:27.079Z,18.20
2023-03-02T16:47:54.438Z,18.27
2023-03-02T16:50:21.277Z,20.53
2023-03-02T16:52:48.029Z,21.27
2023-03-02T16:55:17.890Z,26.10
2023-03-02T16:57:45.004Z,24.73
2023-03-02T17:00:15.404Z,27.83
2023-03-02T17:02:42.213Z,23.73
2023-03-02T17:05:10.368Z,20.53
2023-03-02T17:07:37.396Z,23.73
2023-03-02T17:10:05.195Z,20.73
2023-03-02T17:12:31.996Z,19.53
2023-03-02T17:14:58.687Z,22.17
2023-03-02T17:17:25.364Z,23.63
2023-03-02T17:19:52.217Z,20.13
2023-03-02T17:22:18.959Z,24.90
2023-03-02T17:24:45.693Z,24.13
2023-03-02T17:27:24.173Z,24.27
2023-03-02T17:29:51.777Z,25.60
2023-03-02T17:32:22.300Z,24.63
2023-03-02T17:34:49.616Z,21.23
2023-03-02T17:37:17.545Z,24.93
2023-03-02T17:39:44.238Z,25.57
2023-03-02T17:42:10.895Z,26.83
2023-03-02T17:44:40.810Z,25.03
2023-03-02T17:47:08.265Z,26.17
2023-03-02T17:49:39.627Z,29.63
2023-03-02T17:52:06.774Z,27.17
2023-03-02T17:54:33.434Z,31.30
2023-03-02T17:57:00.224Z,28.53
2023-03-02T17:59:26.893Z,31.60
2023-03-02T18:01:53.655Z,30.27
2023-03-02T18:04:20.450Z,32.27
2023-03-02T18:06:47.481Z,35.50
2023-03-02T18:09:14.299Z,35.50
2023-03-02T18:11:44.050Z,40.40
2023-03-02T18:14:19.536Z,42.00
2023-03-02T18:16:47.277Z,39.83
2023-03-02T18:19:14.033Z,39.77
2023-03-02T18:21:41.783Z,42.87
2023-03-02T18:24:09.462Z,37.40
2023-03-02T18:26:36.236Z,44.27
2023-03-02T18:29:03.936Z,44.43
2023-03-02T18:31:33.917Z,37.07
2023-03-02T18:34:01.891Z,39.97
2023-03-02T18:36:28.991Z,39.50
2023-03-02T18:38:55.949Z,40.07
2023-03-02T18:41:23.978Z,37.33
2023-03-02T18:43:51.147Z,43.37
2023-03-02T18:46:23.826Z,41.80
2023-03-02T18:48:52.400Z,41.13
2023-03-02T18:51:19.963Z,37.70
2023-03-02T18:53:47.638Z,38.43
2023-03-02T18:56:14.515Z,42.33
2023-03-02T18:58:41.800Z,39.37
2023-03-02T19:01:08.735Z,49.53
2023-03-02T19:03:38.539Z,41.60
2023-03-02T19:06:07.341Z,39.87
2023-03-02T19:08:36.579Z,35.87
2023-03-02T19:11:04.642Z,36.00
2023-03-02T19:13:31.547Z,35.80
2023-03-02T19:15:58.348Z,39.33
2023-03-02T19:18:25.518Z,32.87
2023-03-02T19:20:54.322Z,34.83
2023-03-02T19:23:21.210Z,34.80
2023-03-02T19:25:48.123Z,34.77
2023-03-02T19:28:14.879Z,38.20
2023-03-02T19:30:41.603Z,30.43
2023-03-02T19:33:09.726Z,38.13
2023-03-02T19:35:37.850Z,34.43
2023-03-02T19:38:05.570Z,35.47
2023-03-02T19:40:32.442Z,33.73
2023-03-02T19:42:59.163Z,33.97
2023-03-02T19:45:32.273Z,33.17
2023-03-02T19:48:00.321Z,32.83
2023-03-02T19:50:28.614Z,35.53
2023-03-02T19:52:56.264Z,42.73
2023-03-02T19:55:24.275Z,32.77
2023-03-02T19:57:56.429Z,31.77
2023-03-02T20:00:23.855Z,31.97
2023-03-02T20:02:50.690Z,31.60
2023-03-02T20:05:17.815Z,34.00
2023-03-02T20:07:44.613Z,32.57
2023-03-02T20:10:14.207Z,33.03
2023-03-02T20:12:40.908Z,33.83
2023-03-02T20:15:07.842Z,30.97
2023-03-02T20:17:34.568Z,31.07
2023-03-02T20:20:03.508Z,28.77
2023-03-02T20:22:30.199Z,30.80
2023-03-02T20:24:56.846Z,30.07
2023-03-02T20:27:23.576Z,28.60
2023-03-02T20:29:50.286Z,31.50
2023-03-02T20:32:17.320Z,28.53
2023-03-02T20:34:44.118Z,28.37
2023-03-02T20:37:14.310Z,32.20
2023-03-02T20:39:43.093Z,29.20
2023-03-02T20:42:12.109Z,30.20
2023-03-02T20:44:38.958Z,27.87
2023-03-02T20:47:08.875Z,27.87
2023-03-02T20:49:37.260Z,28.57
2023-03-02T20:52:05.294Z,29.13
2023-03-02T20:54:37.231Z,28.70
2023-03-02T20:57:05.565Z,29.20
2023-03-02T20:59:32.648Z,31.23
2023-03-02T21:02:00.115Z,29.93
2023-03-02T21:04:26.887Z,31.60
2023-03-02T21:06:53.854Z,33.23
2023-03-02T21:09:21.266Z,31.67
2023-03-02T21:11:48.209Z,31.87
2023-03-02T21:14:15.554Z,31.07
2023-03-02T21:16:44.037Z,39.33
2023-03-02T21:19:14.778Z,33.70
2023-03-02T21:21:42.575Z,35.87
2023-03-02T21:24:18.087Z,36.33
2023-03-02T21:26:46.600Z,33.60
2023-03-02T21:29:14.024Z,35.67
2023-03-02T21:31:43.707Z,31.23
2023-03-02T21:34:12.276Z,31.33
2023-03-02T21:36:39.401Z,37.27
2023-03-02T21:39:07.723Z,34.73
2023-03-02T21:41:35.769Z,37.60
2023-03-02T21:44:05.385Z,36.77
2023-03-02T21:46:33.802Z,36.07
2023-03-02T21:49:00.582Z,41.27
2023-03-02T21:51:27.263Z,33.60
2023-03-02T21:53:53.969Z,35.67
2023-03-02T21:56:23.483Z,34.47
2023-03-02T21:58:52.643Z,37.70
2023-03-02T22:01:20.707Z,37.13
2023-03-02T22:03:47.648Z,33.20
2023-03-02T22:06:23.654Z,33.97
2023-03-02T22:08:51.103Z,36.10
2023-03-02T22:11:26.612Z,35.80
2023-03-02T22:13:57.026Z,36.70
2023-03-02T22:16:27.520Z,32.83
2023-03-02T22:18:59.209Z,33.10
2023-03-02T22:21:30.669Z,32.50
2023-03-02T22:24:12.807Z,31.13
2023-03-02T22:26:46.110Z,31.63
2023-03-02T22:29:21.789Z,32.40
2023-03-02T22:31:50.759Z,31.37
2023-03-02T22:34:26.612Z,35.60
2023-03-02T22:37:02.398Z,36.17
2023-03-02T22:39:33.444Z,36.13
2023-03-02T22:42:22.215Z,34.03
2023-03-02T22:45:14.779Z,36.53
2023-03-02T22:47:42.993Z,33.27
2023-03-02T22:50:23.344Z,39.40
2023-03-02T22:52:50.781Z,36.17
2023-03-02T22:55:40.287Z,35.93
2023-03-02T22:58:42.512Z,37.87
2023-03-02T23:01:21.322Z,39.20
2023-03-02T23:03:51.338Z,33.27
2023-03-02T23:06:25.621Z,43.63
2023-03-02T23:08:54.549Z,36.63
2023-03-02T23:11:23.213Z,37.37
2023-03-02T23:13:51.131Z,37.03
2023-03-02T23:16:21.923Z,37.93
2023-03-02T23:18:49.398Z,38.53
2023-03-02T23:21:28.270Z,40.70
2023-03-02T23:23:55.485Z,40.17
2023-03-02T23:26:22.215Z,46.53
2023-03-02T23:28:50.417Z,32.80
2023-03-02T23:31:21.182Z,34.97
2023-03-02T23:33:47.949Z,40.03
2023-03-02T23:36:14.850Z,36.20
2023-03-02T23:38:41.763Z,40.47
2023-03-02T23:41:08.628Z,44.03
2023-03-02T23:43:35.853Z,34.77
2023-03-02T23:46:02.606Z,37.33
2023-03-02T23:48:29.464Z,37.20
2023-03-02T23:50:56.214Z,37.43
2023-03-02T23:53:23.408Z,40.27
2023-03-02T23:55:52.782Z,44.57
2023-03-02T23:58:20.110Z,46.40
